sensor_id;sensor_type;location;lat;lon;timestamp;pressure;altitude;pressure_sealevel;temperature;humidity
2401;BME280;1211;43.200;27.914;2023-02-21T00:02:08;101179.81;;;8.34;nan
2401;BME280;1211;43.200;27.914;2023-02-21T00:04:54;101199.22;;;8.38;nan
2401;BME280;1211;43.200;27.914;2023-02-21T00:07:39;101196.97;;;8.40;nan
2401;BME280;1211;43.200;27.914;2023-02-21T00:10:23;101203.50;;;8.25;nan
2401;BME280;1211;43.200;27.914;2023-02-21T00:13:07;101197.91;;;8.16;nan
2401;BME280;1211;43.200;27.914;2023-02-21T00:15:51;101194.00;;;8.04;nan
2401;BME280;1211;43.200;27.914;2023-02-21T00:18:36;101175.47;;;7.96;nan
2401;BME280;1211;43.200;27.914;2023-02-21T00:21:22;101191.53;;;8.02;nan
2401;BME280;1211;43.200;27.914;2023-02-21T00:24:06;101176.19;;;8.01;nan
2401;BME280;1211;43.200;27.914;2023-02-21T00:26:50;101170.41;;;8.03;nan
2401;BME280;1211;43.200;27.914;2023-02-21T00:29:34;101168.56;;;7.98;nan
2401;BME280;1211;43.200;27.914;2023-02-21T00:32:18;101164.16;;;8.16;nan
2401;BME280;1211;43.200;27.914;2023-02-21T00:35:02;101147.06;;;8.05;nan
2401;BME280;1211;43.200;27.914;2023-02-21T00:37:49;101139.97;;;8.18;nan
2401;BME280;1211;43.200;27.914;2023-02-21T00:40:33;101160.34;;;8.31;nan
2401;BME280;1211;43.200;27.914;2023-02-21T00:43:17;101150.25;;;8.26;nan
2401;BME280;1211;43.200;27.914;2023-02-21T00:46:01;101158.84;;;8.38;nan
2401;BME280;1211;43.200;27.914;2023-02-21T00:48:45;101152.72;;;8.27;nan
2401;BME280;1211;43.200;27.914;2023-02-21T00:51:29;101147.28;;;8.09;nan
2401;BME280;1211;43.200;27.914;2023-02-21T00:54:14;101128.69;;;8.06;nan
2401;BME280;1211;43.200;27.914;2023-02-21T00:56:58;101134.91;;;8.11;nan
2401;BME280;1211;43.200;27.914;2023-02-21T00:59:42;101145.97;;;8.39;nan
2401;BME280;1211;43.200;27.914;2023-02-21T01:02:26;101130.50;;;8.43;nan
2401;BME280;1211;43.200;27.914;2023-02-21T01:05:10;101120.53;;;8.47;nan
2401;BME280;1211;43.200;27.914;2023-02-21T01:07:54;101126.84;;;8.61;nan
2401;BME280;1211;43.200;27.914;2023-02-21T01:10:40;101104.91;;;8.61;nan
2401;BME280;1211;43.200;27.914;2023-02-21T01:13:24;101117.91;;;8.55;nan
2401;BME280;1211;43.200;27.914;2023-02-21T01:16:08;101107.13;;;8.59;nan
2401;BME280;1211;43.200;27.914;2023-02-21T01:18:52;101105.78;;;8.70;nan
2401;BME280;1211;43.200;27.914;2023-02-21T01:21:36;101109.97;;;8.67;nan
2401;BME280;1211;43.200;27.914;2023-02-21T01:24:20;101087.50;;;8.65;nan
2401;BME280;1211;43.200;27.914;2023-02-21T01:27:06;101088.53;;;8.70;nan
2401;BME280;1211;43.200;27.914;2023-02-21T01:29:50;101088.63;;;8.78;nan
2401;BME280;1211;43.200;27.914;2023-02-21T01:32:34;101097.84;;;8.82;nan
2401;BME280;1211;43.200;27.914;2023-02-21T01:35:18;101091.34;;;8.78;nan
2401;BME280;1211;43.200;27.914;2023-02-21T01:38:02;101084.56;;;8.62;nan
2401;BME280;1211;43.200;27.914;2023-02-21T01:40:47;101072.34;;;8.68;nan
2401;BME280;1211;43.200;27.914;2023-02-21T01:43:32;101073.47;;;8.67;nan
2401;BME280;1211;43.200;27.914;2023-02-21T01:46:17;101073.50;;;8.40;nan
2401;BME280;1211;43.200;27.914;2023-02-21T01:49:02;101064.03;;;8.32;nan
2401;BME280;1211;43.200;27.914;2023-02-21T01:51:48;101067.28;;;8.34;nan
2401;BME280;1211;43.200;27.914;2023-02-21T01:54:33;101064.88;;;8.14;nan
2401;BME280;1211;43.200;27.914;2023-02-21T01:57:19;101062.53;;;8.07;nan
2401;BME280;1211;43.200;27.914;2023-02-21T02:00:06;101046.91;;;7.94;nan
2401;BME280;1211;43.200;27.914;2023-02-21T02:02:51;101039.53;;;7.90;nan
2401;BME280;1211;43.200;27.914;2023-02-21T02:05:37;101041.16;;;7.77;nan
2401;BME280;1211;43.200;27.914;2023-02-21T02:08:23;100574.00;;;5.00;nan
2401;BME280;1211;43.200;27.914;2023-02-21T02:11:16;100918.94;;;6.97;nan
2401;BME280;1211;43.200;27.914;2023-02-21T02:14:11;100308.53;;;3.30;nan
2401;BME280;1211;43.200;27.914;2023-02-21T02:16:44;101018.28;;;7.68;nan
2401;BME280;1211;43.200;27.914;2023-02-21T02:19:19;101007.13;;;7.64;nan
2401;BME280;1211;43.200;27.914;2023-02-21T02:24:42;100945.69;;;7.52;nan
2401;BME280;1211;43.200;27.914;2023-02-21T02:33:03;101000.53;;;7.65;nan
2401;BME280;1211;43.200;27.914;2023-02-21T02:35:34;100737.16;;;6.39;nan
2401;BME280;1211;43.200;27.914;2023-02-21T02:38:05;100938.78;;;7.54;nan
2401;BME280;1211;43.200;27.914;2023-02-21T02:40:39;100957.72;;;7.83;nan
2401;BME280;1211;43.200;27.914;2023-02-21T02:43:11;100999.56;;;7.89;nan
2401;BME280;1211;43.200;27.914;2023-02-21T02:45:45;100993.78;;;8.17;nan
2401;BME280;1211;43.200;27.914;2023-02-21T02:48:14;100996.13;;;8.10;nan
2401;BME280;1211;43.200;27.914;2023-02-21T02:50:43;100986.56;;;8.21;nan
2401;BME280;1211;43.200;27.914;2023-02-21T02:53:11;100863.25;;;7.34;nan
2401;BME280;1211;43.200;27.914;2023-02-21T02:55:39;100998.06;;;8.23;nan
2401;BME280;1211;43.200;27.914;2023-02-21T02:58:08;100986.56;;;8.08;nan
2401;BME280;1211;43.200;27.914;2023-02-21T03:00:36;101034.34;;;8.48;nan
2401;BME280;1211;43.200;27.914;2023-02-21T03:03:09;101034.84;;;8.50;nan
2401;BME280;1211;43.200;27.914;2023-02-21T03:05:46;101016.44;;;8.37;nan
2401;BME280;1211;43.200;27.914;2023-02-21T03:08:16;101016.84;;;8.44;nan
2401;BME280;1211;43.200;27.914;2023-02-21T03:10:48;101019.41;;;8.40;nan
2401;BME280;1211;43.200;27.914;2023-02-21T03:13:20;101007.91;;;8.52;nan
2401;BME280;1211;43.200;27.914;2023-02-21T03:15:48;100983.28;;;8.60;nan
2401;BME280;1211;43.200;27.914;2023-02-21T03:18:18;100984.31;;;8.51;nan
2401;BME280;1211;43.200;27.914;2023-02-21T03:20:50;100995.06;;;8.61;nan
2401;BME280;1211;43.200;27.914;2023-02-21T03:23:19;101002.81;;;8.59;nan
2401;BME280;1211;43.200;27.914;2023-02-21T03:25:47;101002.44;;;8.52;nan
2401;BME280;1211;43.200;27.914;2023-02-21T03:28:15;101010.56;;;8.57;nan
2401;BME280;1211;43.200;27.914;2023-02-21T03:30:43;100991.75;;;8.50;nan
2401;BME280;1211;43.200;27.914;2023-02-21T03:33:10;101008.00;;;8.60;nan
2401;BME280;1211;43.200;27.914;2023-02-21T03:35:37;101006.47;;;8.54;nan
2401;BME280;1211;43.200;27.914;2023-02-21T03:38:05;100982.47;;;8.60;nan
2401;BME280;1211;43.200;27.914;2023-02-21T03:40:32;101008.22;;;8.50;nan
2401;BME280;1211;43.200;27.914;2023-02-21T03:43:00;100984.94;;;8.48;nan
2401;BME280;1211;43.200;27.914;2023-02-21T03:45:27;100996.25;;;8.46;nan
2401;BME280;1211;43.200;27.914;2023-02-21T03:47:53;101005.06;;;8.43;nan
2401;BME280;1211;43.200;27.914;2023-02-21T03:50:20;100995.31;;;8.51;nan
2401;BME280;1211;43.200;27.914;2023-02-21T03:52:47;101027.22;;;8.47;nan
2401;BME280;1211;43.200;27.914;2023-02-21T03:55:15;101019.91;;;8.56;nan
2401;BME280;1211;43.200;27.914;2023-02-21T03:57:42;101009.31;;;8.63;nan
2401;BME280;1211;43.200;27.914;2023-02-21T04:00:09;101017.44;;;8.68;nan
2401;BME280;1211;43.200;27.914;2023-02-21T04:02:36;101000.03;;;8.86;nan
2401;BME280;1211;43.200;27.914;2023-02-21T04:05:03;101015.16;;;8.84;nan
2401;BME280;1211;43.200;27.914;2023-02-21T04:07:30;101003.56;;;8.87;nan
2401;BME280;1211;43.200;27.914;2023-02-21T04:09:56;100992.13;;;8.93;nan
2401;BME280;1211;43.200;27.914;2023-02-21T04:12:24;100991.53;;;8.96;nan
2401;BME280;1211;43.200;27.914;2023-02-21T04:14:51;101000.16;;;9.03;nan
2401;BME280;1211;43.200;27.914;2023-02-21T04:17:20;101003.91;;;9.07;nan
2401;BME280;1211;43.200;27.914;2023-02-21T04:19:47;100980.03;;;9.17;nan
2401;BME280;1211;43.200;27.914;2023-02-21T04:22:14;100981.25;;;9.24;nan
2401;BME280;1211;43.200;27.914;2023-02-21T04:24:41;100978.31;;;9.21;nan
2401;BME280;1211;43.200;27.914;2023-02-21T04:27:07;100968.25;;;9.38;nan
2401;BME280;1211;43.200;27.914;2023-02-21T04:29:36;100979.47;;;9.50;nan
2401;BME280;1211;43.200;27.914;2023-02-21T04:32:03;100977.63;;;9.68;nan
2401;BME280;1211;43.200;27.914;2023-02-21T04:34:29;100962.47;;;9.79;nan
2401;BME280;1211;43.200;27.914;2023-02-21T04:36:56;100955.22;;;9.83;nan
2401;BME280;1211;43.200;27.914;2023-02-21T04:39:23;100962.69;;;9.91;nan
2401;BME280;1211;43.200;27.914;2023-02-21T04:41:49;100964.38;;;9.70;nan
2401;BME280;1211;43.200;27.914;2023-02-21T04:44:16;100955.69;;;9.77;nan
2401;BME280;1211;43.200;27.914;2023-02-21T04:46:44;100968.94;;;9.75;nan
2401;BME280;1211;43.200;27.914;2023-02-21T04:49:11;100948.56;;;9.76;nan
2401;BME280;1211;43.200;27.914;2023-02-21T04:51:38;100964.53;;;9.65;nan
2401;BME280;1211;43.200;27.914;2023-02-21T04:54:04;100955.41;;;9.56;nan
2401;BME280;1211;43.200;27.914;2023-02-21T04:56:31;100950.09;;;9.60;nan
2401;BME280;1211;43.200;27.914;2023-02-21T04:58:58;100970.47;;;9.59;nan
2401;BME280;1211;43.200;27.914;2023-02-21T05:01:26;100989.50;;;9.77;nan
2401;BME280;1211;43.200;27.914;2023-02-21T05:03:54;100963.19;;;9.63;nan
2401;BME280;1211;43.200;27.914;2023-02-21T05:06:21;100969.72;;;9.44;nan
2401;BME280;1211;43.200;27.914;2023-02-21T05:08:48;100942.66;;;9.60;nan
2401;BME280;1211;43.200;27.914;2023-02-21T05:11:15;100975.28;;;9.53;nan
2401;BME280;1211;43.200;27.914;2023-02-21T05:13:42;100980.53;;;9.63;nan
2401;BME280;1211;43.200;27.914;2023-02-21T05:16:09;99642.63;;;1.11;nan
2401;BME280;1211;43.200;27.914;2023-02-21T05:18:35;99723.19;;;1.48;nan
2401;BME280;1211;43.200;27.914;2023-02-21T05:21:05;100030.66;;;3.00;nan
2401;BME280;1211;43.200;27.914;2023-02-21T05:23:32;99857.41;;;2.35;nan
2401;BME280;1211;43.200;27.914;2023-02-21T05:25:59;100987.94;;;9.63;nan
2401;BME280;1211;43.200;27.914;2023-02-21T05:28:26;100976.44;;;9.83;nan
2401;BME280;1211;43.200;27.914;2023-02-21T05:30:53;100964.31;;;9.92;nan
2401;BME280;1211;43.200;27.914;2023-02-21T05:33:20;100969.06;;;10.01;nan
2401;BME280;1211;43.200;27.914;2023-02-21T05:35:47;100949.00;;;10.09;nan
2401;BME280;1211;43.200;27.914;2023-02-21T05:38:15;100975.03;;;10.33;nan
2401;BME280;1211;43.200;27.914;2023-02-21T05:40:42;100952.41;;;10.54;nan
2401;BME280;1211;43.200;27.914;2023-02-21T05:43:09;100970.72;;;11.10;nan
2401;BME280;1211;43.200;27.914;2023-02-21T05:45:36;100965.84;;;11.24;nan
2401;BME280;1211;43.200;27.914;2023-02-21T05:48:02;100956.53;;;11.54;nan
2401;BME280;1211;43.200;27.914;2023-02-21T05:50:29;100964.38;;;11.44;nan
2401;BME280;1211;43.200;27.914;2023-02-21T05:52:56;100962.44;;;11.27;nan
2401;BME280;1211;43.200;27.914;2023-02-21T05:55:25;100957.78;;;11.83;nan
2401;BME280;1211;43.200;27.914;2023-02-21T05:57:51;100957.72;;;12.29;nan
2401;BME280;1211;43.200;27.914;2023-02-21T06:00:20;100965.59;;;12.19;nan
2401;BME280;1211;43.200;27.914;2023-02-21T06:02:48;100965.69;;;12.81;nan
2401;BME280;1211;43.200;27.914;2023-02-21T06:05:15;100973.09;;;13.64;nan
2401;BME280;1211;43.200;27.914;2023-02-21T06:07:42;100970.66;;;13.62;nan
2401;BME280;1211;43.200;27.914;2023-02-21T06:10:08;100982.78;;;14.39;nan
2401;BME280;1211;43.200;27.914;2023-02-21T06:12:37;100975.47;;;14.59;nan
2401;BME280;1211;43.200;27.914;2023-02-21T06:15:04;100978.47;;;14.29;nan
2401;BME280;1211;43.200;27.914;2023-02-21T06:17:31;100998.56;;;13.24;nan
2401;BME280;1211;43.200;27.914;2023-02-21T06:19:58;100972.78;;;14.01;nan
2401;BME280;1211;43.200;27.914;2023-02-21T06:22:24;100979.53;;;14.61;nan
2401;BME280;1211;43.200;27.914;2023-02-21T06:24:51;100982.13;;;15.78;nan
2401;BME280;1211;43.200;27.914;2023-02-21T06:27:18;100989.72;;;16.43;nan
2401;BME280;1211;43.200;27.914;2023-02-21T06:29:46;100986.78;;;16.36;nan
2401;BME280;1211;43.200;27.914;2023-02-21T06:32:12;100992.09;;;17.50;nan
2401;BME280;1211;43.200;27.914;2023-02-21T06:34:39;100992.97;;;17.54;nan
2401;BME280;1211;43.200;27.914;2023-02-21T06:37:06;100994.31;;;17.60;nan
2401;BME280;1211;43.200;27.914;2023-02-21T06:39:32;100979.47;;;18.21;nan
2401;BME280;1211;43.200;27.914;2023-02-21T06:41:59;100979.94;;;18.75;nan
2401;BME280;1211;43.200;27.914;2023-02-21T06:44:26;100980.59;;;18.95;nan
2401;BME280;1211;43.200;27.914;2023-02-21T06:46:54;100969.53;;;18.46;nan
2401;BME280;1211;43.200;27.914;2023-02-21T06:49:21;100967.69;;;17.05;nan
2401;BME280;1211;43.200;27.914;2023-02-21T06:51:47;100955.59;;;16.78;nan
2401;BME280;1211;43.200;27.914;2023-02-21T06:54:14;100968.81;;;17.19;nan
2401;BME280;1211;43.200;27.914;2023-02-21T06:56:42;100961.72;;;16.68;nan
2401;BME280;1211;43.200;27.914;2023-02-21T06:59:08;100956.81;;;16.61;nan
2401;BME280;1211;43.200;27.914;2023-02-21T07:01:35;100961.47;;;16.41;nan
2401;BME280;1211;43.200;27.914;2023-02-21T07:04:03;100958.81;;;16.99;nan
2401;BME280;1211;43.200;27.914;2023-02-21T07:06:30;100979.03;;;17.35;nan
2401;BME280;1211;43.200;27.914;2023-02-21T07:08:57;100978.16;;;17.69;nan
2401;BME280;1211;43.200;27.914;2023-02-21T07:11:25;100971.72;;;17.46;nan
2401;BME280;1211;43.200;27.914;2023-02-21T07:32:21;100933.16;;;20.02;nan
2401;BME280;1211;43.200;27.914;2023-02-21T07:34:48;100943.19;;;19.66;nan
2401;BME280;1211;43.200;27.914;2023-02-21T07:37:15;100942.28;;;19.96;nan
2401;BME280;1211;43.200;27.914;2023-02-21T07:39:41;100946.63;;;19.93;nan
